CDT,Max TemperatureF,Mean TemperatureF,Min TemperatureF,Max Dew PointF,MeanDew PointF,Min DewpointF,Max Humidity, Mean Humidity, Min Humidity, Max Sea Level PressureIn, Mean Sea Level PressureIn, Min Sea Level PressureIn, Max VisibilityMiles, Mean VisibilityMiles, Min VisibilityMiles, Max Wind SpeedMPH, Mean Wind SpeedMPH, Max Gust SpeedMPH,PrecipitationIn, CloudCover, Events, WindDirDegrees
2012-10-1,71,56,42,50,44,37,87,68,35,29.92,29.88,29.82,10,10,10,18,5,23,0.00,1,,241
2012-10-2,62,48,35,46,35,27,100,64,26,29.99,29.94,29.90,10,8,0,6,2,,0.00,0,Fog,64
2012-10-3,71,56,41,54,44,36,100,70,31,29.99,29.95,29.92,10,8,0,9,2,,0.00,1,Fog,159
2012-10-4,60,50,41,48,39,28,82,63,44,29.96,29.88,29.79,10,10,10,22,8,32,0.00,2,,207
2012-10-5,41,38,35,32,28,25,87,70,60,29.94,29.92,29.91,10,10,7,21,15,32,0.00,8,Snow,265
2012-10-6,41,37,33,34,30,25,93,79,53,30.15,30.07,29.94,10,9,2,21,9,26,0.00,7,Snow,326
2012-10-7,46,37,28,30,22,16,93,58,31,30.13,30.03,29.92,10,10,10,14,4,23,0.00,1,,239
2012-10-8,53,43,33,45,28,19,87,56,44,29.92,29.77,29.63,10,10,10,17,9,30,0.00,4,Rain,194
2012-10-9,48,42,35,45,36,32,93,85,70,29.79,29.71,29.66,10,9,5,16,6,24,0.06,6,Rain-Snow,247
2012-10-10,42,37,32,32,26,18,87,69,42,29.98,29.92,29.79,10,10,5,17,9,28,0.00,5,Snow,290
2012-10-11,42,37,32,34,30,23,93,78,49,30.28,30.01,29.83,10,10,5,17,5,26,0.00,5,Rain-Snow,321
2012-10-12,46,34,23,32,23,18,93,68,32,30.41,30.32,30.15,10,10,10,13,3,20,0.00,0,,191
2012-10-13,44,40,37,43,37,19,100,88,45,30.14,29.87,29.72,10,5,0,16,7,25,0.01,7,Fog-Rain,174
2012-10-14,42,40,39,43,40,37,100,92,87,29.78,29.71,29.63,10,7,2,17,7,24,0.00,8,Rain,9
2012-10-15,53,44,35,37,34,32,93,74,47,29.91,29.85,29.77,10,10,10,16,8,20,0.00,4,,338
2012-10-16,59,50,42,46,42,36,93,74,59,29.84,29.63,29.47,10,10,10,17,5,22,0.00,5,Rain,152
2012-10-17,64,53,42,52,47,41,94,84,52,29.47,29.33,29.24,10,7,2,15,6,25,0.06,5,Rain,152
2012-10-18,51,46,42,50,44,41,100,93,87,29.41,29.24,29.13,10,7,2,9,3,,0.21,7,Rain,209
2012-10-19,48,42,35,41,38,34,100,85,66,29.67,29.58,29.44,10,9,0,10,4,,0.00,7,Fog-Rain,35
2012-10-20,51,43,35,43,39,34,93,86,58,29.85,29.76,29.66,10,10,10,7,4,,0.00,6,,329
2012-10-21,59,46,32,43,38,30,100,76,51,29.96,29.92,29.85,10,9,1,12,2,16,0.00,1,,157
2012-10-22,60,50,41,46,43,37,93,72,55,30.04,29.99,29.95,10,10,7,10,4,16,0.00,3,,54
2012-10-23,55,50,46,55,50,43,100,92,82,29.99,29.88,29.83,10,4,1,16,7,21,0.00,8,Rain-Thunderstorm,130
2012-10-24,64,58,53,63,59,52,100,95,88,29.88,29.81,29.67,10,2,0,13,6,20,0.34,8,Fog-Rain-Thunderstorm,158
2012-10-25,53,44,35,52,42,32,100,92,87,29.96,29.68,29.52,10,8,2,18,8,29,0.61,8,Rain-Snow-Thunderstorm,326
2012-10-26,37,34,32,32,26,21,93,73,56,30.27,30.17,29.97,10,10,10,15,9,21,0.00,6,,264
2012-10-27,37,32,26,25,21,16,80,62,41,30.32,30.28,30.25,10,10,10,12,4,16,0.00,3,,270
2012-10-28,42,32,23,28,21,16,93,68,36,30.35,30.32,30.29,10,10,10,8,1,,0.00,0,,189
2012-10-29,46,34,23,30,23,19,93,71,39,30.35,30.31,30.23,10,10,10,6,1,,0.00,0,,26
2012-10-30,37,34,32,32,26,21,93,72,56,30.23,30.08,29.94,10,10,10,23,10,30,0.00,1,,6
2012-10-31,41,36,30,28,23,14,80,65,38,29.93,29.87,29.83,10,10,10,18,11,25,0.00,2,,340